createdAt,value
2018-07-20T00:01:02.589Z,19.60
2018-07-20T00:03:39.257Z,19.50
2018-07-20T00:06:25.208Z,19.50
2018-07-20T00:11:23.372Z,19.50
2018-07-20T00:14:03.257Z,19.40
2018-07-20T00:16:37.659Z,19.30
2018-07-20T00:19:12.429Z,19.30
2018-07-20T00:21:46.907Z,19.40
2018-07-20T00:24:32.035Z,19.30
2018-07-20T00:27:00.440Z,19.30
2018-07-20T00:29:28.790Z,19.10
2018-07-20T00:31:57.116Z,19.20
2018-07-20T00:34:38.092Z,19.20
2018-07-20T00:39:52.659Z,19.20
2018-07-20T00:42:21.071Z,19.30
2018-07-20T00:44:49.426Z,19.00
2018-07-20T00:47:17.860Z,18.90
2018-07-20T00:52:14.500Z,18.70
2018-07-20T00:54:42.844Z,18.80
2018-07-20T00:57:11.406Z,18.80
2018-07-20T00:59:39.794Z,18.80
2018-07-20T01:02:08.263Z,18.80
2018-07-20T01:04:36.756Z,18.80
2018-07-20T01:07:05.139Z,18.80
2018-07-20T01:09:33.532Z,18.70
2018-07-20T01:14:29.968Z,18.50
2018-07-20T01:16:58.356Z,18.30
2018-07-20T01:21:55.399Z,18.50
2018-07-20T01:24:23.763Z,18.50
2018-07-20T01:26:52.099Z,18.50
2018-07-20T01:29:20.602Z,18.30
2018-07-20T01:31:49.225Z,18.50
2018-07-20T01:34:17.687Z,18.40
2018-07-20T01:36:46.125Z,18.30
2018-07-20T01:39:14.947Z,18.30
2018-07-20T01:41:43.355Z,18.10
2018-07-20T01:44:11.751Z,18.00
2018-07-20T01:46:40.136Z,18.00
2018-07-20T01:49:08.495Z,18.10
2018-07-20T01:51:36.948Z,18.10
2018-07-20T01:54:05.369Z,18.00
2018-07-20T01:56:33.754Z,18.00
2018-07-20T01:59:02.152Z,17.90
2018-07-20T02:01:31.337Z,17.90
2018-07-20T02:06:36.327Z,17.70
2018-07-20T02:09:07.683Z,18.00
2018-07-20T02:11:36.112Z,18.10
2018-07-20T02:16:32.593Z,18.40
2018-07-20T02:19:01.032Z,18.30
2018-07-20T02:21:29.765Z,18.30
2018-07-20T02:23:58.178Z,18.30
2018-07-20T02:26:26.575Z,18.20
2018-07-20T02:28:55.332Z,18.20
2018-07-20T02:31:24.549Z,18.20
2018-07-20T02:33:52.919Z,18.20
2018-07-20T02:36:26.378Z,18.20
2018-07-20T02:38:54.861Z,18.30
2018-07-20T02:41:23.245Z,18.20
2018-07-20T02:43:51.683Z,18.10
2018-07-20T02:46:20.111Z,18.20
2018-07-20T02:48:48.472Z,18.00
2018-07-20T02:51:21.882Z,18.00
2018-07-20T02:53:50.304Z,18.00
2018-07-20T02:56:18.870Z,18.00
2018-07-20T02:58:47.389Z,18.00
2018-07-20T03:01:15.914Z,17.80
2018-07-20T03:03:44.535Z,17.90
2018-07-20T03:06:13.149Z,17.80
2018-07-20T03:11:10.189Z,17.70
2018-07-20T03:13:38.740Z,17.60
2018-07-20T03:16:07.319Z,17.60
2018-07-20T03:18:35.773Z,17.70
2018-07-20T03:21:04.369Z,17.70
2018-07-20T03:23:33.563Z,17.60
2018-07-20T03:26:02.342Z,17.60
2018-07-20T03:28:44.881Z,17.40
2018-07-20T03:31:13.795Z,17.40
2018-07-20T03:33:42.269Z,17.60
2018-07-20T03:36:11.094Z,17.60
2018-07-20T03:38:39.684Z,17.60
2018-07-20T03:41:08.362Z,17.50
2018-07-20T03:43:36.941Z,17.50
2018-07-20T03:46:05.449Z,17.30
2018-07-20T03:48:34.665Z,17.20
2018-07-20T03:51:03.273Z,17.30
2018-07-20T03:53:31.970Z,17.20
2018-07-20T03:56:00.528Z,17.10
2018-07-20T03:58:29.222Z,17.20
2018-07-20T04:00:57.785Z,17.30
2018-07-20T04:03:26.233Z,17.50
2018-07-20T04:05:55.805Z,17.50
2018-07-20T04:08:24.254Z,17.40
2018-07-20T04:10:53.312Z,17.50
2018-07-20T04:13:21.882Z,17.80
2018-07-20T04:15:50.293Z,17.80
2018-07-20T04:18:19.170Z,17.70
2018-07-20T04:20:47.764Z,17.80
2018-07-20T04:23:16.127Z,17.80
2018-07-20T04:25:48.399Z,17.80
2018-07-20T04:28:17.192Z,17.80
2018-07-20T04:30:45.642Z,17.90
2018-07-20T04:33:14.051Z,18.00
2018-07-20T04:35:42.475Z,18.10
2018-07-20T04:38:10.873Z,18.00
2018-07-20T04:40:39.224Z,18.10
2018-07-20T04:43:07.670Z,18.10
2018-07-20T04:45:36.045Z,18.00
2018-07-20T04:48:04.544Z,18.10
2018-07-20T04:50:38.786Z,18.20
2018-07-20T04:53:12.924Z,18.20
2018-07-20T04:55:41.443Z,18.30
2018-07-20T04:58:09.816Z,18.40
2018-07-20T05:00:38.196Z,18.40
2018-07-20T05:03:07.335Z,18.60
2018-07-20T05:05:35.770Z,18.60
2018-07-20T05:08:04.536Z,18.70
2018-07-20T05:10:32.874Z,18.60
2018-07-20T05:13:01.277Z,18.70
2018-07-20T05:15:29.704Z,18.80
2018-07-20T05:17:58.118Z,18.90
2018-07-20T05:20:31.526Z,18.70
2018-07-20T05:22:59.884Z,18.50
2018-07-20T05:25:28.286Z,18.80
2018-07-20T05:27:56.908Z,18.80
2018-07-20T05:30:25.455Z,19.00
2018-07-20T05:32:54.030Z,19.10
2018-07-20T05:35:27.162Z,19.20
2018-07-20T05:37:55.515Z,19.20
2018-07-20T05:40:24.004Z,19.30
2018-07-20T05:42:52.731Z,19.30
2018-07-20T05:45:21.144Z,19.30
2018-07-20T05:47:49.564Z,19.40
2018-07-20T05:50:18.260Z,19.40
2018-07-20T05:52:47.266Z,19.40
2018-07-20T05:55:15.640Z,19.40
2018-07-20T05:57:44.199Z,19.40
2018-07-20T06:00:12.797Z,19.50
2018-07-20T06:02:41.388Z,19.60
2018-07-20T06:05:09.785Z,19.60
2018-07-20T06:07:38.306Z,19.40
2018-07-20T06:10:07.416Z,19.40
2018-07-20T06:12:35.905Z,19.40
2018-07-20T06:15:04.467Z,19.40
2018-07-20T06:17:33.455Z,19.50
2018-07-20T06:20:02.052Z,19.40
2018-07-20T06:22:31.588Z,19.50
2018-07-20T06:25:00.128Z,19.50
2018-07-20T06:29:56.749Z,19.40
2018-07-20T06:32:26.509Z,19.50
2018-07-20T06:34:54.927Z,19.70
2018-07-20T06:37:23.309Z,19.80
2018-07-20T06:39:51.818Z,19.80
2018-07-20T06:42:20.309Z,19.80
2018-07-20T06:44:48.867Z,19.80
2018-07-20T06:57:09.841Z,20.00
2018-07-20T06:59:38.208Z,20.10
2018-07-20T07:02:07.527Z,20.20
2018-07-20T07:04:36.044Z,20.20
2018-07-20T07:07:04.999Z,20.30
2018-07-20T07:09:34.121Z,20.40
2018-07-20T07:12:02.653Z,20.40
2018-07-20T07:14:31.071Z,20.40
2018-07-20T07:16:59.569Z,20.40
2018-07-20T07:19:27.958Z,20.40
2018-07-20T07:21:56.363Z,20.40
2018-07-20T07:24:24.850Z,20.50
2018-07-20T07:26:53.231Z,20.50
2018-07-20T07:29:21.661Z,20.60
2018-07-20T07:31:50.073Z,20.60
2018-07-20T07:34:18.432Z,20.60
2018-07-20T07:36:46.803Z,20.70
2018-07-20T07:39:15.872Z,20.70
2018-07-20T07:41:44.307Z,20.70
2018-07-20T07:44:12.693Z,20.70
2018-07-20T07:46:46.945Z,20.90
2018-07-20T07:49:15.336Z,20.90
2018-07-20T07:51:43.860Z,21.00
2018-07-20T07:54:12.268Z,21.10
2018-07-20T07:56:40.631Z,21.10
2018-07-20T08:05:12.059Z,21.10
2018-07-20T08:07:40.425Z,21.10
2018-07-20T08:10:08.895Z,21.30
2018-07-20T08:12:37.168Z,21.30
2018-07-20T08:15:06.461Z,21.40
2018-07-20T08:17:35.109Z,21.50
2018-07-20T08:20:03.481Z,21.60
2018-07-20T08:22:31.898Z,21.70
2018-07-20T08:25:00.299Z,21.80
2018-07-20T08:27:28.663Z,21.90
2018-07-20T08:29:57.054Z,22.00
2018-07-20T08:32:25.425Z,22.20
2018-07-20T08:34:53.802Z,22.20
2018-07-20T08:37:22.239Z,22.10
2018-07-20T08:39:50.582Z,22.20
2018-07-20T08:42:18.979Z,22.10
2018-07-20T08:44:48.638Z,22.20
2018-07-20T08:47:17.114Z,22.40
2018-07-20T08:49:45.496Z,22.60
2018-07-20T08:52:13.899Z,22.60
2018-07-20T08:54:42.254Z,22.60
2018-07-20T08:57:11.060Z,22.60
2018-07-20T08:59:39.392Z,22.50
2018-07-20T09:07:04.085Z,22.70
2018-07-20T09:09:32.504Z,23.20
2018-07-20T09:12:00.889Z,23.20
2018-07-20T09:14:29.264Z,23.20
2018-07-20T09:16:57.627Z,23.30
2018-07-20T09:19:26.021Z,23.60
2018-07-20T09:21:54.431Z,23.60
2018-07-20T09:24:22.842Z,23.60
2018-07-20T09:26:51.283Z,23.50
2018-07-20T09:29:20.187Z,23.60
2018-07-20T09:31:48.573Z,23.70
2018-07-20T09:34:16.927Z,23.70
2018-07-20T09:36:45.266Z,23.80
2018-07-20T14:15:56.117Z,23.90
2018-07-20T14:18:24.442Z,27.80
2018-07-20T14:20:52.843Z,27.40
2018-07-20T14:25:49.270Z,27.50
2018-07-20T14:28:17.640Z,28.00
2018-07-20T14:30:45.993Z,28.00
2018-07-20T14:33:14.378Z,28.00
2018-07-20T14:35:42.739Z,27.70
2018-07-20T14:38:11.055Z,27.60
2018-07-20T14:40:39.470Z,27.50
2018-07-20T14:43:07.947Z,27.40
2018-07-20T14:45:36.281Z,27.30
2018-07-20T14:48:04.872Z,27.40
2018-07-20T14:50:33.257Z,27.60
2018-07-20T14:53:01.574Z,27.60
2018-07-20T14:55:29.994Z,27.70
2018-07-20T14:57:59.263Z,28.20
2018-07-20T15:00:27.717Z,28.50
2018-07-20T15:02:56.088Z,28.70
2018-07-20T15:05:24.455Z,28.70
2018-07-20T15:07:54.539Z,28.70
2018-07-20T15:10:22.853Z,28.60
2018-07-20T15:12:51.210Z,28.40
2018-07-20T15:15:19.777Z,28.60
2018-07-20T15:17:48.124Z,28.40
2018-07-20T15:20:16.506Z,28.20
2018-07-20T15:27:41.054Z,27.60
2018-07-20T15:30:09.375Z,27.30
2018-07-20T15:32:37.825Z,27.60
2018-07-20T15:35:06.270Z,28.20
2018-07-20T15:37:34.703Z,28.60
2018-07-20T15:40:03.117Z,28.90
2018-07-20T15:42:31.479Z,29.40
2018-07-20T15:44:59.835Z,29.50
2018-07-20T15:47:28.318Z,29.50
2018-07-20T15:49:56.575Z,29.70
2018-07-20T15:54:53.732Z,30.80
2018-07-20T15:57:22.290Z,31.50
2018-07-20T15:59:50.815Z,32.20
2018-07-20T16:02:18.979Z,33.00
2018-07-20T16:04:47.377Z,33.00
2018-07-20T16:07:15.758Z,31.70
2018-07-20T16:09:44.147Z,30.30
2018-07-20T16:14:41.087Z,28.90
2018-07-20T16:17:09.480Z,28.60
2018-07-20T16:19:37.837Z,28.60
2018-07-20T16:22:06.211Z,28.60
